Time;durP1;ratioP1;P1;durP2;ratioP2;P2;SDS_P1;SDS_P2;PMS_P1;PMS_P2;Temp;Humidity;BMP_temperature;BMP_pressure;BME280_temperature;BME280_humidity;BME280_pressure;Samples;Min_cycle;Max_cycle;Signal;HPM_P1;HPM_P2
2023/03/31 00:01:48;;;;;;;2.78;1.10;;;;;;;;;;6159675;23;20074;-81
2023/03/31 00:04:13;;;;;;;4.28;1.60;;;;;;;;;;6111152;23;20036;-80
2023/03/31 00:06:41;;;;;;;3.88;1.65;;;;;;;;;;6111346;23;20044;-80
2023/03/31 00:09:08;;;;;;;3.20;1.58;;;;;;;;;;6110065;23;20463;-80
2023/03/31 00:11:34;;;;;;;4.15;1.38;;;;;;;;;;6111327;23;20018;-80
2023/03/31 00:14:00;;;;;;;6.22;1.58;;;;;;;;;;6112228;23;20025;-79
2023/03/31 00:16:26;;;;;;;6.05;1.48;;;;;;;;;;6137119;23;20064;-80
2023/03/31 00:18:52;;;;;;;4.18;1.30;;;;;;;;;;6113108;23;20141;-80
2023/03/31 00:21:23;;;;;;;6.93;1.40;;;;;;;;;;6113263;23;20020;-80
2023/03/31 00:24:00;;;;;;;4.30;1.42;;;;;;;;;;6135812;23;20013;-80
2023/03/31 00:26:26;;;;;;;2.72;1.27;;;;;;;;;;6160643;23;20025;-80
2023/03/31 00:28:52;;;;;;;4.78;1.33;;;;;;;;;;6112346;23;20014;-80
2023/03/31 00:31:19;;;;;;;3.45;1.30;;;;;;;;;;6136390;23;20041;-80
2023/03/31 00:33:45;;;;;;;3.23;1.20;;;;;;;;;;6111480;23;20068;-80
2023/03/31 00:36:10;;;;;;;2.83;1.02;;;;;;;;;;6134176;23;20010;-80
2023/03/31 00:38:36;;;;;;;3.47;1.08;;;;;;;;;;6134879;23;20025;-80
2023/03/31 00:41:02;;;;;;;3.80;1.10;;;;;;;;;;6133303;23;20020;-80
2023/03/31 00:43:36;;;;;;;2.85;1.00;;;;;;;;;;6160450;23;20415;-80
2023/03/31 00:46:21;;;;;;;4.30;1.20;;;;;;;;;;6133516;23;20325;-81
2023/03/31 00:48:57;;;;;;;3.47;1.15;;;;;;;;;;6134391;23;20056;-81
2023/03/31 00:51:25;;;;;;;4.35;1.08;;;;;;;;;;6110441;23;20025;-80
2023/03/31 00:53:59;;;;;;;4.97;1.38;;;;;;;;;;6134707;23;20574;-79
2023/03/31 00:56:28;;;;;;;4.55;1.05;;;;;;;;;;6110353;23;20014;-80
2023/03/31 00:58:56;;;;;;;2.45;0.70;;;;;;;;;;6093450;23;20021;-80
2023/03/31 01:01:25;;;;;;;4.75;1.23;;;;;;;;;;6104072;23;20020;-80
2023/03/31 01:03:51;;;;;;;2.95;0.90;;;;;;;;;;6135403;23;20013;-80
2023/03/31 01:06:18;;;;;;;5.05;0.90;;;;;;;;;;6132669;23;20024;-81
2023/03/31 01:08:47;;;;;;;3.83;1.00;;;;;;;;;;6109525;23;20052;-80
2023/03/31 01:11:15;;;;;;;3.17;0.73;;;;;;;;;;6108531;23;20009;-80
2023/03/31 01:13:41;;;;;;;3.67;1.00;;;;;;;;;;6110494;23;20503;-80
2023/03/31 01:16:06;;;;;;;6.07;1.25;;;;;;;;;;6109728;23;20043;-81
2023/03/31 01:18:35;;;;;;;3.00;0.80;;;;;;;;;;6136202;23;20021;-80
2023/03/31 01:21:37;;;;;;;2.85;0.90;;;;;;;;;;6108569;23;20013;-81
2023/03/31 01:24:37;;;;;;;3.90;1.00;;;;;;;;;;6133289;23;20084;-80
2023/03/31 01:27:29;;;;;;;3.70;1.15;;;;;;;;;;6132456;23;20021;-80
2023/03/31 01:30:14;;;;;;;2.03;0.80;;;;;;;;;;6108968;23;20339;-81
2023/03/31 01:33:15;;;;;;;3.60;0.85;;;;;;;;;;6158305;23;20021;-80
2023/03/31 01:35:58;;;;;;;2.45;0.60;;;;;;;;;;6131879;23;20376;-80
2023/03/31 01:39:08;;;;;;;3.95;1.00;;;;;;;;;;6133819;23;20339;-81
2023/03/31 01:41:49;;;;;;;3.67;0.60;;;;;;;;;;6134223;23;20421;-81
2023/03/31 01:44:29;;;;;;;3.47;0.70;;;;;;;;;;6162630;23;20025;-80
2023/03/31 01:46:59;;;;;;;3.95;0.93;;;;;;;;;;6135474;23;20037;-81
2023/03/31 01:49:46;;;;;;;3.80;0.80;;;;;;;;;;6112946;23;20033;-81
2023/03/31 01:52:19;;;;;;;3.60;0.70;;;;;;;;;;6161206;23;20022;-81
2023/03/31 01:54:51;;;;;;;2.28;0.75;;;;;;;;;;6162761;23;20444;-81
2023/03/31 01:57:25;;;;;;;2.75;1.20;;;;;;;;;;6136824;23;20028;-80
2023/03/31 01:59:52;;;;;;;2.05;0.85;;;;;;;;;;6112750;23;20049;-81
2023/03/31 02:02:39;;;;;;;3.65;1.00;;;;;;;;;;6112082;23;20391;-82
2023/03/31 02:05:18;;;;;;;3.97;1.00;;;;;;;;;;6136533;23;20020;-81
2023/03/31 02:07:49;;;;;;;3.15;0.80;;;;;;;;;;6111440;23;20421;-82
2023/03/31 02:10:15;;;;;;;2.70;0.77;;;;;;;;;;6136890;23;20047;-81
2023/03/31 02:12:42;;;;;;;4.32;0.77;;;;;;;;;;6110965;23;20021;-79
2023/03/31 02:15:11;;;;;;;2.97;0.80;;;;;;;;;;6162831;23;20009;-80
2023/03/31 02:17:39;;;;;;;2.70;0.82;;;;;;;;;;6099896;23;20022;-81
2023/03/31 02:20:11;;;;;;;3.05;0.80;;;;;;;;;;6114144;23;20088;-79
2023/03/31 02:22:41;;;;;;;4.38;1.05;;;;;;;;;;6113717;23;20439;-79
2023/03/31 02:25:09;;;;;;;2.70;0.90;;;;;;;;;;6112898;23;20072;-79
2023/03/31 02:27:38;;;;;;;4.15;0.85;;;;;;;;;;6111677;23;20021;-80
2023/03/31 02:30:06;;;;;;;1.30;0.50;;;;;;;;;;6136874;23;20009;-80
2023/03/31 02:32:36;;;;;;;3.15;0.90;;;;;;;;;;6111465;23;20024;-80
2023/03/31 02:35:05;;;;;;;3.90;0.90;;;;;;;;;;6134385;23;20017;-81
2023/03/31 02:37:30;;;;;;;2.20;0.60;;;;;;;;;;6159633;23;20028;-82
2023/03/31 02:39:58;;;;;;;2.05;0.77;;;;;;;;;;6111174;23;20017;-81
2023/03/31 02:42:23;;;;;;;;;;;;;;;;;;6112065;23;20478;-82
2023/03/31 02:44:49;;;;;;;1.33;0.63;;;;;;;;;;6185993;23;19912;-81
2023/03/31 02:47:17;;;;;;;3.03;0.80;;;;;;;;;;6160722;23;20014;-81
2023/03/31 02:49:47;;;;;;;4.07;0.88;;;;;;;;;;6109956;23;20025;-80
2023/03/31 02:52:22;;;;;;;2.17;0.70;;;;;;;;;;6135630;23;20017;-81
2023/03/31 02:55:15;;;;;;;6.03;0.73;;;;;;;;;;6135797;23;21633;-81
2023/03/31 02:57:59;;;;;;;1.35;0.60;;;;;;;;;;6111501;23;20018;-80
2023/03/31 03:00:49;;;;;;;4.18;0.80;;;;;;;;;;6161459;23;20021;-81
2023/03/31 03:03:36;;;;;;;1.92;0.70;;;;;;;;;;6135313;23;20017;-82
2023/03/31 03:06:12;;;;;;;1.90;0.60;;;;;;;;;;6159371;23;20522;-82
2023/03/31 03:09:18;;;;;;;2.35;0.75;;;;;;;;;;6111178;23;20356;-81
2023/03/31 03:12:13;;;;;;;2.72;1.05;;;;;;;;;;6140543;23;20017;-82
2023/03/31 03:14:55;;;;;;;1.48;0.60;;;;;;;;;;6131105;23;20021;-77
2023/03/31 03:17:25;;;;;;;3.50;0.98;;;;;;;;;;6119378;23;20018;-77
2023/03/31 03:19:53;;;;;;;3.72;0.80;;;;;;;;;;6096300;23;20060;-76
2023/03/31 03:22:19;;;;;;;4.13;1.10;;;;;;;;;;6095199;23;20352;-78
2023/03/31 03:24:45;;;;;;;3.70;0.82;;;;;;;;;;6095927;23;20024;-77
2023/03/31 03:27:10;;;;;;;2.33;0.80;;;;;;;;;;6093750;23;20053;-77
2023/03/31 03:29:35;;;;;;;2.55;0.70;;;;;;;;;;6095396;23;20482;-77
2023/03/31 03:32:01;;;;;;;3.17;0.80;;;;;;;;;;6095171;23;20021;-77
2023/03/31 03:34:26;;;;;;;2.42;0.82;;;;;;;;;;6120735;23;20037;-77
2023/03/31 03:36:52;;;;;;;1.83;0.70;;;;;;;;;;6094614;23;20444;-77
2023/03/31 03:39:17;;;;;;;2.10;0.80;;;;;;;;;;6146102;23;20112;-77
2023/03/31 03:41:42;;;;;;;2.92;0.80;;;;;;;;;;6118935;23;20021;-77
2023/03/31 03:44:08;;;;;;;3.17;0.98;;;;;;;;;;6145430;23;20025;-77
2023/03/31 03:46:33;;;;;;;2.38;0.73;;;;;;;;;;6118676;23;20014;-77
2023/03/31 03:48:59;;;;;;;3.20;0.70;;;;;;;;;;6119927;23;20021;-76
2023/03/31 03:51:24;;;;;;;3.00;0.90;;;;;;;;;;6119271;23;20009;-75
2023/03/31 03:53:49;;;;;;;2.35;0.63;;;;;;;;;;6119403;23;20018;-76
2023/03/31 03:56:15;;;;;;;3.65;0.77;;;;;;;;;;6105338;23;20017;-77
2023/03/31 03:58:40;;;;;;;6.28;1.58;;;;;;;;;;6120188;23;20092;-77
2023/03/31 04:01:06;;;;;;;2.65;0.85;;;;;;;;;;6118775;23;20020;-77
2023/03/31 04:03:31;;;;;;;1.85;0.90;;;;;;;;;;6119926;23;20406;-77
2023/03/31 04:05:57;;;;;;;4.43;1.40;;;;;;;;;;6094469;23;20439;-77
2023/03/31 04:08:22;;;;;;;3.25;0.85;;;;;;;;;;6119630;23;20037;-77
2023/03/31 04:10:48;;;;;;;3.83;0.82;;;;;;;;;;6119181;23;20025;-77
2023/03/31 04:13:18;;;;;;;2.13;0.90;;;;;;;;;;6095579;23;20394;-77
2023/03/31 04:15:44;;;;;;;2.38;0.80;;;;;;;;;;6119307;23;20018;-77
2023/03/31 04:18:17;;;;;;;4.10;1.08;;;;;;;;;;6119006;23;20349;-76
2023/03/31 04:20:43;;;;;;;4.63;0.80;;;;;;;;;;6121047;23;20029;-77
2023/03/31 04:23:09;;;;;;;2.42;0.68;;;;;;;;;;6144997;23;20013;-76
2023/03/31 04:25:37;;;;;;;2.55;0.90;;;;;;;;;;6118739;23;20017;-77
2023/03/31 04:28:05;;;;;;;1.83;0.70;;;;;;;;;;6145294;23;20013;-76
2023/03/31 04:30:31;;;;;;;3.33;0.90;;;;;;;;;;6093844;23;20013;-77
2023/03/31 04:32:58;;;;;;;4.40;0.90;;;;;;;;;;6120681;23;20016;-77
2023/03/31 04:35:26;;;;;;;4.90;0.82;;;;;;;;;;6093961;23;20018;-77
2023/03/31 04:37:59;;;;;;;4.40;1.02;;;;;;;;;;6120658;23;20036;-76
2023/03/31 04:40:25;;;;;;;3.95;0.93;;;;;;;;;;6119427;23;20041;-76
2023/03/31 04:42:50;;;;;;;2.70;0.80;;;;;;;;;;6119938;23;20021;-75
2023/03/31 04:45:16;;;;;;;2.83;0.85;;;;;;;;;;6094204;23;20041;-76
2023/03/31 04:47:42;;;;;;;3.90;0.80;;;;;;;;;;6094191;23;20095;-76
2023/03/31 04:50:09;;;;;;;2.63;0.98;;;;;;;;;;6118858;23;20116;-76
2023/03/31 04:52:34;;;;;;;3.28;0.95;;;;;;;;;;6105867;23;20533;-76
2023/03/31 04:55:00;;;;;;;4.05;1.00;;;;;;;;;;6119301;23;20037;-75
2023/03/31 04:57:25;;;;;;;3.33;0.93;;;;;;;;;;6119633;23;20024;-75
2023/03/31 04:59:51;;;;;;;3.40;0.80;;;;;;;;;;6118926;23;20088;-76
2023/03/31 05:02:22;;;;;;;3.22;0.88;;;;;;;;;;6118314;23;20862;-75
2023/03/31 05:04:51;;;;;;;3.55;0.93;;;;;;;;;;6143933;23;20040;-75
2023/03/31 05:07:18;;;;;;;7.95;1.77;;;;;;;;;;6144444;23;20021;-76
2023/03/31 05:09:43;;;;;;;5.78;1.08;;;;;;;;;;6094497;23;20077;-77
2023/03/31 05:12:09;;;;;;;3.25;1.00;;;;;;;;;;6118020;23;20033;-76
2023/03/31 05:14:34;;;;;;;5.35;1.42;;;;;;;;;;6094924;23;20395;-76
2023/03/31 05:17:00;;;;;;;3.40;0.93;;;;;;;;;;6145737;23;20021;-77
2023/03/31 05:19:25;;;;;;;4.80;1.00;;;;;;;;;;6122036;23;20022;-76
2023/03/31 05:21:50;;;;;;;3.03;1.00;;;;;;;;;;6120015;23;20017;-76
2023/03/31 05:24:16;;;;;;;4.43;1.02;;;;;;;;;;6121228;23;20022;-76
2023/03/31 05:26:46;;;;;;;2.33;0.82;;;;;;;;;;6120106;23;20045;-76
2023/03/31 05:29:12;;;;;;;3.72;0.93;;;;;;;;;;6119655;23;20013;-76
2023/03/31 05:31:37;;;;;;;3.20;1.00;;;;;;;;;;6119608;23;20014;-76
2023/03/31 05:34:02;;;;;;;5.22;0.77;;;;;;;;;;6120188;23;20071;-76
2023/03/31 05:36:28;;;;;;;4.25;0.80;;;;;;;;;;6120931;23;20464;-76
2023/03/31 05:38:53;;;;;;;5.68;1.30;;;;;;;;;;6121494;23;20413;-76
2023/03/31 05:41:19;;;;;;;2.60;0.75;;;;;;;;;;6119979;23;20009;-76
2023/03/31 05:43:45;;;;;;;3.47;1.10;;;;;;;;;;6095960;23;20031;-76
2023/03/31 05:46:10;;;;;;;4.53;1.00;;;;;;;;;;6119751;23;20019;-76
2023/03/31 05:48:36;;;;;;;3.60;0.90;;;;;;;;;;6120487;23;20044;-76
2023/03/31 05:51:02;;;;;;;2.78;1.00;;;;;;;;;;6095038;23;20021;-76
2023/03/31 05:53:27;;;;;;;2.80;0.90;;;;;;;;;;6147412;23;20018;-77
2023/03/31 05:56:01;;;;;;;2.90;0.75;;;;;;;;;;6119690;23;20348;-76
2023/03/31 05:58:27;;;;;;;3.10;1.00;;;;;;;;;;6120670;23;20016;-75
2023/03/31 06:01:07;;;;;;;3.33;0.90;;;;;;;;;;6119537;23;20110;-77
2023/03/31 06:03:34;;;;;;;3.10;0.90;;;;;;;;;;6095659;23;20024;-78
2023/03/31 06:06:00;;;;;;;5.28;1.15;;;;;;;;;;6095854;23;20080;-76
2023/03/31 06:08:26;;;;;;;3.72;0.90;;;;;;;;;;6121160;23;20072;-76
2023/03/31 06:10:52;;;;;;;2.97;0.98;;;;;;;;;;6119569;23;20013;-75
2023/03/31 06:13:17;;;;;;;5.22;1.20;;;;;;;;;;6120853;23;20459;-76
2023/03/31 06:15:43;;;;;;;3.63;1.13;;;;;;;;;;6145326;23;20043;-75
2023/03/31 06:18:09;;;;;;;3.70;1.25;;;;;;;;;;6120689;23;20049;-76
2023/03/31 06:20:35;;;;;;;3.53;1.08;;;;;;;;;;6119639;23;20037;-74
2023/03/31 06:23:01;;;;;;;2.22;0.90;;;;;;;;;;6120300;23;20017;-75
2023/03/31 06:25:26;;;;;;;4.70;1.20;;;;;;;;;;6095600;23;20096;-75
2023/03/31 06:27:51;;;;;;;4.22;1.05;;;;;;;;;;6146542;23;20072;-75
2023/03/31 06:30:17;;;;;;;4.30;1.17;;;;;;;;;;6119572;23;20017;-76
2023/03/31 06:32:42;;;;;;;6.07;1.33;;;;;;;;;;6145696;23;20041;-75
2023/03/31 06:35:08;;;;;;;4.45;1.10;;;;;;;;;;6119075;23;20013;-75
2023/03/31 06:37:33;;;;;;;3.53;1.10;;;;;;;;;;6145813;23;20424;-76
2023/03/31 06:39:59;;;;;;;6.10;1.45;;;;;;;;;;6119642;23;20013;-77
2023/03/31 06:42:24;;;;;;;2.47;0.88;;;;;;;;;;6120324;23;20030;-75
2023/03/31 06:44:50;;;;;;;3.75;1.13;;;;;;;;;;6146354;23;20076;-77
2023/03/31 06:47:15;;;;;;;4.65;1.00;;;;;;;;;;6119120;23;20352;-77
2023/03/31 06:49:40;;;;;;;3.92;1.08;;;;;;;;;;6094413;23;20458;-77
2023/03/31 06:52:06;;;;;;;4.68;1.10;;;;;;;;;;6119152;23;20343;-77
2023/03/31 06:54:31;;;;;;;7.72;1.60;;;;;;;;;;6120184;23;20028;-77
2023/03/31 06:56:57;;;;;;;3.50;1.02;;;;;;;;;;6119749;23;20348;-77
2023/03/31 06:59:22;;;;;;;3.65;1.00;;;;;;;;;;6120216;23;20071;-77
2023/03/31 07:01:49;;;;;;;4.57;1.10;;;;;;;;;;6118999;23;20018;-77
2023/03/31 07:04:15;;;;;;;4.27;1.20;;;;;;;;;;6095630;23;20688;-77
2023/03/31 07:06:41;;;;;;;3.55;1.20;;;;;;;;;;6119227;23;20021;-77
2023/03/31 07:09:06;;;;;;;4.65;1.05;;;;;;;;;;6094864;23;20022;-77
2023/03/31 07:11:31;;;;;;;12.07;2.03;;;;;;;;;;6118767;23;20018;-77
2023/03/31 07:13:57;;;;;;;3.85;1.33;;;;;;;;;;6120574;23;20090;-76
2023/03/31 07:16:22;;;;;;;3.85;0.80;;;;;;;;;;6094298;23;20017;-76
2023/03/31 07:18:49;;;;;;;4.50;1.00;;;;;;;;;;6145797;23;20017;-76
2023/03/31 07:21:14;;;;;;;2.90;0.75;;;;;;;;;;6119668;23;20071;-76
2023/03/31 07:23:40;;;;;;;3.95;0.90;;;;;;;;;;6119716;23;20702;-76
2023/03/31 07:26:06;;;;;;;5.22;1.05;;;;;;;;;;6119687;23;20009;-77
2023/03/31 07:28:32;;;;;;;5.10;1.15;;;;;;;;;;6105052;23;20084;-76
2023/03/31 07:31:00;;;;;;;4.97;1.13;;;;;;;;;;6119354;23;20467;-76
2023/03/31 07:33:25;;;;;;;2.55;0.70;;;;;;;;;;6120278;23;20418;-76
2023/03/31 07:35:50;;;;;;;5.55;1.10;;;;;;;;;;6119028;23;20101;-76
2023/03/31 07:38:16;;;;;;;3.13;0.50;;;;;;;;;;6094735;23;20368;-76
2023/03/31 07:40:42;;;;;;;3.90;1.10;;;;;;;;;;6118294;23;20009;-77
2023/03/31 07:43:08;;;;;;;5.03;1.00;;;;;;;;;;6119770;23;20021;-76
2023/03/31 07:45:34;;;;;;;4.03;0.80;;;;;;;;;;6118487;23;20074;-77
2023/03/31 07:48:00;;;;;;;4.70;0.85;;;;;;;;;;6119316;23;20025;-77
2023/03/31 07:50:26;;;;;;;2.40;0.70;;;;;;;;;;6094415;23;20032;-77
2023/03/31 07:52:51;;;;;;;3.30;0.68;;;;;;;;;;6122507;23;20478;-80
2023/03/31 07:55:18;;;;;;;4.50;0.88;;;;;;;;;;6125737;23;20010;-80
2023/03/31 07:57:45;;;;;;;4.05;0.60;;;;;;;;;;6123699;23;20363;-78
2023/03/31 08:00:11;;;;;;;2.28;0.70;;;;;;;;;;6076807;23;20647;-81
2023/03/31 08:02:37;;;;;;;4.65;0.80;;;;;;;;;;6141721;23;20018;-82
2023/03/31 08:05:04;;;;;;;4.00;0.80;;;;;;;;;;6093935;23;20152;-82
2023/03/31 08:07:34;;;;;;;1.98;0.77;;;;;;;;;;6094997;23;20032;-81
2023/03/31 08:09:59;;;;;;;3.28;0.70;;;;;;;;;;6119482;23;20711;-81
2023/03/31 08:12:25;;;;;;;3.03;0.82;;;;;;;;;;6095006;23;20017;-81
2023/03/31 08:14:50;;;;;;;3.28;0.70;;;;;;;;;;6120361;23;20077;-82
2023/03/31 08:17:16;;;;;;;2.42;0.77;;;;;;;;;;6118829;23;20068;-82
2023/03/31 08:19:41;;;;;;;4.50;0.80;;;;;;;;;;6095536;23;20028;-84
2023/03/31 08:22:07;;;;;;;3.85;0.80;;;;;;;;;;6118785;23;20017;-82
2023/03/31 08:24:52;;;;;;;4.00;0.60;;;;;;;;;;6096018;23;20022;-83
2023/03/31 08:27:18;;;;;;;5.03;0.90;;;;;;;;;;6025618;23;20027;-82
2023/03/31 08:29:43;;;;;;;3.30;0.70;;;;;;;;;;5980099;23;20521;-81
2023/03/31 08:32:09;;;;;;;7.80;1.02;;;;;;;;;;6025496;23;20233;-83
2023/03/31 08:34:35;;;;;;;3.03;0.75;;;;;;;;;;6002856;23;20026;-82
2023/03/31 08:37:00;;;;;;;1.83;0.65;;;;;;;;;;5978537;23;20015;-83
2023/03/31 08:39:26;;;;;;;2.70;0.65;;;;;;;;;;6027891;23;20023;-81
2023/03/31 08:42:01;;;;;;;2.65;0.80;;;;;;;;;;6025486;23;20030;-82
2023/03/31 08:44:37;;;;;;;2.83;0.70;;;;;;;;;;6003453;23;20027;-82
2023/03/31 08:47:05;;;;;;;4.20;1.15;;;;;;;;;;6001881;23;20023;-82
2023/03/31 08:49:38;;;;;;;;;;;;;;;;;;6003259;23;20031;-82
2023/03/31 08:52:09;;;;;;;3.47;0.90;;;;;;;;;;6002510;23;20345;-82
2023/03/31 08:54:39;;;;;;;3.40;0.50;;;;;;;;;;6002810;23;20386;-82
2023/03/31 08:57:12;;;;;;;3.17;0.80;;;;;;;;;;5978241;23;20051;-82
2023/03/31 08:59:39;;;;;;;4.85;0.85;;;;;;;;;;6002985;23;20053;-82
2023/03/31 09:02:20;;;;;;;;;;;;;;;;;;6002079;23;20501;-82
2023/03/31 09:04:54;;;;;;;4.65;1.15;;;;;;;;;;6082023;23;19912;-83
2023/03/31 09:07:52;;;;;;;3.72;0.80;;;;;;;;;;6119766;23;20018;-84
2023/03/31 09:10:27;;;;;;;2.53;0.63;;;;;;;;;;6143812;23;20078;-83
2023/03/31 09:13:25;;;;;;;2.95;0.70;;;;;;;;;;6095397;23;20025;-83
2023/03/31 09:15:53;;;;;;;2.20;0.70;;;;;;;;;;6115568;23;20061;-84
2023/03/31 09:18:34;;;;;;;3.28;0.75;;;;;;;;;;6146560;23;20018;-83
2023/03/31 09:21:19;;;;;;;2.90;0.60;;;;;;;;;;6118484;23;20016;-84
2023/03/31 09:24:13;;;;;;;3.05;0.57;;;;;;;;;;6095735;23;20136;-83
2023/03/31 09:26:52;;;;;;;1.80;0.52;;;;;;;;;;6139741;23;20553;-84
2023/03/31 09:29:46;;;;;;;2.70;0.70;;;;;;;;;;6119835;23;20132;-83
2023/03/31 09:32:24;;;;;;;3.05;0.70;;;;;;;;;;6101394;23;20455;-82
2023/03/31 09:34:52;;;;;;;4.03;1.08;;;;;;;;;;6119448;23;20021;-83
2023/03/31 09:37:38;;;;;;;3.17;0.60;;;;;;;;;;6093410;23;20013;-83
2023/03/31 09:40:06;;;;;;;3.80;0.80;;;;;;;;;;6119179;23;20041;-82
2023/03/31 09:42:35;;;;;;;1.77;0.60;;;;;;;;;;6143553;23;20110;-83
2023/03/31 09:45:01;;;;;;;2.53;0.70;;;;;;;;;;6120222;23;20574;-82
2023/03/31 09:47:38;;;;;;;3.63;0.93;;;;;;;;;;6094439;23;20097;-82
2023/03/31 09:50:06;;;;;;;2.92;0.70;;;;;;;;;;6119892;23;20010;-83
2023/03/31 09:52:32;;;;;;;;;;;;;;;;;;6119248;23;20014;-81
2023/03/31 09:55:02;;;;;;;2.88;0.80;;;;;;;;;;6146414;23;19959;-82
2023/03/31 09:57:33;;;;;;;3.15;0.73;;;;;;;;;;6118047;23;20020;-82
2023/03/31 10:00:15;;;;;;;3.50;0.75;;;;;;;;;;6145165;23;20355;-81
2023/03/31 10:02:50;;;;;;;2.30;0.73;;;;;;;;;;6119270;23;20030;-81
2023/03/31 10:05:31;;;;;;;2.80;0.70;;;;;;;;;;6120124;23;20016;-82
2023/03/31 10:08:29;;;;;;;4.82;0.90;;;;;;;;;;6098128;23;20675;-82
2023/03/31 10:11:06;;;;;;;2.55;0.98;;;;;;;;;;6117727;23;20096;-82
2023/03/31 10:13:39;;;;;;;2.67;1.10;;;;;;;;;;6096831;23;20949;-83
2023/03/31 10:16:07;;;;;;;3.65;1.40;;;;;;;;;;6142358;23;20023;-82
2023/03/31 10:18:45;;;;;;;;;;;;;;;;;;6083376;23;20025;-82
2023/03/31 10:21:26;;;;;;;3.05;1.13;;;;;;;;;;6119884;23;19988;-82
2023/03/31 10:23:53;;;;;;;3.17;1.23;;;;;;;;;;6120629;23;20021;-82
2023/03/31 10:26:21;;;;;;;2.95;0.95;;;;;;;;;;6119057;23;20025;-83
2023/03/31 10:28:49;;;;;;;3.92;1.20;;;;;;;;;;6120365;23;20018;-82
2023/03/31 10:31:15;;;;;;;5.15;1.58;;;;;;;;;;6120518;23;20109;-82
2023/03/31 10:33:48;;;;;;;5.32;1.30;;;;;;;;;;6121257;23;20483;-82
2023/03/31 10:36:27;;;;;;;3.80;1.30;;;;;;;;;;6119776;23;20017;-82
2023/03/31 10:38:53;;;;;;;3.83;1.27;;;;;;;;;;6121949;23;20020;-82
2023/03/31 10:41:25;;;;;;;3.28;1.10;;;;;;;;;;6119900;23;20351;-82
2023/03/31 10:44:05;;;;;;;3.15;1.33;;;;;;;;;;6120769;23;20489;-82
2023/03/31 10:46:51;;;;;;;2.53;1.30;;;;;;;;;;6121360;23;20025;-82
2023/03/31 10:49:26;;;;;;;3.83;1.50;;;;;;;;;;6082261;23;20021;-83
2023/03/31 10:51:57;;;;;;;3.88;1.55;;;;;;;;;;6119558;23;20020;-84
2023/03/31 10:54:23;;;;;;;4.45;1.17;;;;;;;;;;6120812;23;20022;-81
2023/03/31 10:56:54;;;;;;;3.17;1.25;;;;;;;;;;6095239;23;20022;-82
2023/03/31 10:59:58;;;;;;;2.67;1.33;;;;;;;;;;6120584;23;20068;-82
2023/03/31 11:03:03;;;;;;;3.10;1.40;;;;;;;;;;6145389;23;20068;-82
2023/03/31 11:05:45;;;;;;;4.45;1.30;;;;;;;;;;6119499;23;20017;-82
2023/03/31 11:08:35;;;;;;;3.88;1.13;;;;;;;;;;6119729;23;20025;-85
2023/03/31 11:11:31;;;;;;;3.70;1.00;;;;;;;;;;6146269;23;20435;-82
2023/03/31 11:14:17;;;;;;;2.53;0.90;;;;;;;;;;6100510;23;20013;-82
2023/03/31 11:17:12;;;;;;;3.08;0.90;;;;;;;;;;6094014;23;20480;-82
2023/03/31 11:20:13;;;;;;;2.75;0.85;;;;;;;;;;6110667;23;20025;-82
2023/03/31 11:22:47;;;;;;;4.43;0.90;;;;;;;;;;6139888;23;20096;-82
2023/03/31 11:25:22;;;;;;;5.97;1.00;;;;;;;;;;6145436;23;20071;-82
2023/03/31 11:28:08;;;;;;;3.88;0.90;;;;;;;;;;6119990;23;20053;-82
2023/03/31 11:31:00;;;;;;;2.95;0.80;;;;;;;;;;6118449;23;20053;-82
2023/03/31 11:33:37;;;;;;;3.88;1.00;;;;;;;;;;6112470;23;20067;-81
2023/03/31 11:36:21;;;;;;;4.70;1.35;;;;;;;;;;6144724;23;20064;-82
2023/03/31 11:39:14;;;;;;;6.03;0.95;;;;;;;;;;6145221;23;20041;-76
2023/03/31 11:41:50;;;;;;;3.33;1.00;;;;;;;;;;6094151;23;20092;-77
2023/03/31 11:44:18;;;;;;;4.35;1.00;;;;;;;;;;6145905;23;20052;-80
2023/03/31 11:46:53;;;;;;;4.28;1.10;;;;;;;;;;6118213;23;20017;-82
2023/03/31 11:49:23;;;;;;;3.42;1.33;;;;;;;;;;6119605;23;20022;-82
2023/03/31 11:51:58;;;;;;;3.60;1.23;;;;;;;;;;6094289;23;21496;-81
2023/03/31 11:54:23;;;;;;;3.83;1.48;;;;;;;;;;6120154;23;20017;-81
2023/03/31 11:56:48;;;;;;;3.28;1.40;;;;;;;;;;6145322;23;20024;-82
2023/03/31 11:59:15;;;;;;;5.78;1.50;;;;;;;;;;6117895;23;20613;-82
2023/03/31 12:01:47;;;;;;;3.78;1.52;;;;;;;;;;6144246;23;20227;-82
2023/03/31 12:04:33;;;;;;;2.75;1.30;;;;;;;;;;6118114;23;20383;-81
2023/03/31 12:07:30;;;;;;;6.72;1.40;;;;;;;;;;6117424;23;20029;-82
2023/03/31 12:10:20;;;;;;;5.60;1.60;;;;;;;;;;6089917;23;20375;-82
2023/03/31 12:13:04;;;;;;;3.30;1.13;;;;;;;;;;6118290;23;20071;-82
2023/03/31 12:15:40;;;;;;;3.72;1.20;;;;;;;;;;6117101;23;20233;-83
2023/03/31 12:18:15;;;;;;;2.83;0.90;;;;;;;;;;6145000;23;20021;-83
2023/03/31 12:20:45;;;;;;;2.92;1.10;;;;;;;;;;6118354;23;20045;-83
2023/03/31 12:23:15;;;;;;;3.30;1.20;;;;;;;;;;6118202;23;21023;-83
2023/03/31 12:26:17;;;;;;;2.97;0.95;;;;;;;;;;6092344;23;20671;-82
2023/03/31 12:28:44;;;;;;;2.55;1.20;;;;;;;;;;6144198;23;20376;-83
2023/03/31 12:31:16;;;;;;;3.28;1.17;;;;;;;;;;6116677;23;20021;-83
2023/03/31 12:34:08;;;;;;;3.50;1.40;;;;;;;;;;6119231;23;20025;-82
2023/03/31 12:36:34;;;;;;;4.18;1.30;;;;;;;;;;6141523;23;20422;-83
2023/03/31 12:39:36;;;;;;;4.05;1.10;;;;;;;;;;6118872;23;20028;-82
2023/03/31 12:42:30;;;;;;;2.65;1.10;;;;;;;;;;6104338;23;20077;-82
2023/03/31 12:44:58;;;;;;;3.03;1.00;;;;;;;;;;6118659;23;20045;-84
2023/03/31 12:47:45;;;;;;;2.40;1.05;;;;;;;;;;6144471;23;20813;-82
2023/03/31 12:50:10;;;;;;;2.50;1.00;;;;;;;;;;6117462;23;20044;-82
2023/03/31 12:53:00;;;;;;;3.70;1.38;;;;;;;;;;6145383;23;20459;-82
2023/03/31 12:55:42;;;;;;;3.13;1.40;;;;;;;;;;6144312;23;20025;-82
2023/03/31 12:58:28;;;;;;;4.55;1.80;;;;;;;;;;6118535;23;20484;-81
2023/03/31 13:01:21;;;;;;;4.55;1.90;;;;;;;;;;6122492;23;20034;-82
2023/03/31 13:04:05;;;;;;;7.03;2.20;;;;;;;;;;6118198;23;20356;-81
2023/03/31 13:06:31;;;;;;;4.72;2.20;;;;;;;;;;6127931;23;20049;-81
2023/03/31 13:08:57;;;;;;;5.63;2.55;;;;;;;;;;6145141;23;20052;-80
2023/03/31 13:11:31;;;;;;;5.80;2.80;;;;;;;;;;6105415;23;20024;-80
2023/03/31 13:14:01;;;;;;;4.50;2.22;;;;;;;;;;6144991;23;20237;-83
2023/03/31 13:16:28;;;;;;;5.88;2.85;;;;;;;;;;6117070;23;20088;-85
2023/03/31 13:18:54;;;;;;;5.73;3.10;;;;;;;;;;6094634;23;20013;-82
2023/03/31 13:21:20;;;;;;;5.47;2.80;;;;;;;;;;6117357;23;20328;-83
2023/03/31 13:23:45;;;;;;;4.70;2.83;;;;;;;;;;6094782;23;20041;-83
2023/03/31 13:26:32;;;;;;;6.63;2.50;;;;;;;;;;6116723;23;20014;-83
2023/03/31 13:29:19;;;;;;;4.93;2.35;;;;;;;;;;6144864;23;20362;-81
2023/03/31 13:31:59;;;;;;;4.35;2.35;;;;;;;;;;6115745;23;20013;-81
2023/03/31 13:34:30;;;;;;;5.38;2.85;;;;;;;;;;6143528;23;20340;-81
2023/03/31 13:37:08;;;;;;;4.38;2.20;;;;;;;;;;6119051;23;20387;-81
2023/03/31 13:40:18;;;;;;;3.13;1.70;;;;;;;;;;6145473;23;20362;-81
2023/03/31 13:42:56;;;;;;;2.67;1.48;;;;;;;;;;6054623;23;20062;-81
2023/03/31 13:45:42;;;;;;;4.47;1.85;;;;;;;;;;6054391;23;20520;-81
2023/03/31 13:48:32;;;;;;;4.07;1.40;;;;;;;;;;6114783;23;20478;-82
2023/03/31 13:51:13;;;;;;;3.80;1.50;;;;;;;;;;6146087;23;20089;-81
2023/03/31 13:53:50;;;;;;;3.42;1.70;;;;;;;;;;6145986;23;20021;-82
2023/03/31 13:56:38;;;;;;;5.15;1.88;;;;;;;;;;6145118;23;20072;-85
2023/03/31 13:59:19;;;;;;;3.30;1.50;;;;;;;;;;6146369;23;20020;-85
2023/03/31 14:01:50;;;;;;;3.47;1.30;;;;;;;;;;6119702;23;20084;-86
2023/03/31 14:04:24;;;;;;;4.05;1.17;;;;;;;;;;6120878;23;20020;-84
2023/03/31 14:06:57;;;;;;;3.10;1.17;;;;;;;;;;6145993;23;20021;-84
2023/03/31 14:09:31;;;;;;;3.30;1.30;;;;;;;;;;6121145;23;20018;-85
2023/03/31 14:12:02;;;;;;;2.80;1.20;;;;;;;;;;6120326;23;20376;-84
2023/03/31 14:14:28;;;;;;;3.05;1.27;;;;;;;;;;6120677;23;20018;-85
2023/03/31 14:16:59;;;;;;;2.90;1.13;;;;;;;;;;6120332;23;20020;-85
2023/03/31 14:19:34;;;;;;;3.90;1.50;;;;;;;;;;6121871;23;20041;-84
2023/03/31 14:22:26;;;;;;;3.08;1.10;;;;;;;;;;6146015;23;20387;-84
2023/03/31 14:25:22;;;;;;;3.10;0.90;;;;;;;;;;6121980;23;20013;-85
2023/03/31 14:28:07;;;;;;;2.93;1.00;;;;;;;;;;6147235;23;20033;-84
2023/03/31 14:30:42;;;;;;;2.45;1.00;;;;;;;;;;6119621;23;20272;-83
2023/03/31 14:33:21;;;;;;;1.23;0.68;;;;;;;;;;6120517;23;20017;-84
2023/03/31 14:35:49;;;;;;;2.20;0.95;;;;;;;;;;6120136;23;20021;-84
2023/03/31 14:38:21;;;;;;;2.30;0.93;;;;;;;;;;6146696;23;20538;-84
2023/03/31 14:40:49;;;;;;;1.60;0.82;;;;;;;;;;6145262;23;20631;-85
2023/03/31 14:43:20;;;;;;;1.70;0.80;;;;;;;;;;6096636;23;20022;-85
2023/03/31 14:45:46;;;;;;;2.75;0.80;;;;;;;;;;6146109;23;20021;-85
2023/03/31 14:48:13;;;;;;;1.65;0.70;;;;;;;;;;6096824;23;20358;-85
2023/03/31 14:50:43;;;;;;;2.10;0.80;;;;;;;;;;6145822;23;20013;-84
2023/03/31 14:53:16;;;;;;;1.83;0.77;;;;;;;;;;6121168;23;20020;-85
2023/03/31 14:55:44;;;;;;;1.58;0.77;;;;;;;;;;6120214;23;20024;-85
2023/03/31 14:58:12;;;;;;;1.85;0.88;;;;;;;;;;6096882;23;20018;-85
2023/03/31 15:00:38;;;;;;;2.45;1.00;;;;;;;;;;6119124;23;20064;-86
2023/03/31 15:03:06;;;;;;;1.85;0.80;;;;;;;;;;6096506;23;20452;-85
2023/03/31 15:05:34;;;;;;;2.42;0.88;;;;;;;;;;6094998;23;20028;-85
2023/03/31 15:08:26;;;;;;;1.70;0.88;;;;;;;;;;6121120;23;20018;-83
2023/03/31 15:10:55;;;;;;;2.42;0.98;;;;;;;;;;6138226;23;20021;-85
2023/03/31 15:13:44;;;;;;;3.03;1.05;;;;;;;;;;6121033;23;20029;-85
2023/03/31 15:16:43;;;;;;;2.55;0.70;;;;;;;;;;6095868;23;20100;-85
2023/03/31 15:19:26;;;;;;;3.60;0.98;;;;;;;;;;6120977;23;20021;-85